Time;durP1;ratioP1;P1;durP2;ratioP2;P2;SDS_P1;SDS_P2;PMS_P1;PMS_P2;Temp;Humidity;BMP_temperature;BMP_pressure;BME280_temperature;BME280_humidity;BME280_pressure;Samples;Min_cycle;Max_cycle;Signal;HPM_P1;HPM_P2
2022/04/14 00:00:28;;;;;;;14.50;9.05;;;;;;;-144.47;100.00;61586.06;6154513;23;20063;-79
2022/04/14 00:02:54;;;;;;;13.48;10.43;;;;;;;-144.47;100.00;61586.06;6181675;23;20012;-78
2022/04/14 00:05:20;;;;;;;14.73;9.73;;;;;;;-144.47;100.00;61586.06;6154651;23;20017;-78
2022/04/14 00:07:46;;;;;;;17.92;9.75;;;;;;;-144.47;100.00;61586.06;6180920;23;20412;-78
2022/04/14 00:10:12;;;;;;;13.98;9.55;;;;;;;-144.47;100.00;61586.06;6179227;23;20110;-78
2022/04/14 00:12:38;;;;;;;13.00;9.55;;;;;;;-144.47;100.00;61586.06;6180479;23;20009;-77
2022/04/14 00:15:06;;;;;;;13.73;9.85;;;;;;;-144.47;100.00;61586.06;6180316;23;20087;-76
2022/04/14 00:17:33;;;;;;;16.00;9.57;;;;;;;-144.47;100.00;61586.06;6179744;23;20013;-76
2022/04/14 00:20:06;;;;;;;13.55;9.55;;;;;;;-144.47;100.00;61586.06;6154439;23;20071;-78
2022/04/14 00:22:32;;;;;;;13.32;9.70;;;;;;;-144.47;100.00;61586.06;6174990;23;20017;-78
2022/04/14 00:24:57;;;;;;;19.00;10.10;;;;;;;-144.47;100.00;61586.06;6180972;23;20013;-76
2022/04/14 00:27:23;;;;;;;13.98;9.57;;;;;;;-144.47;100.00;61586.06;6180336;23;20363;-78
2022/04/14 00:29:49;;;;;;;16.50;10.32;;;;;;;-144.47;100.00;61586.06;6130379;23;20009;-78
2022/04/14 00:32:15;;;;;;;13.70;9.73;;;;;;;-144.47;100.00;61586.06;6180791;23;20104;-78
2022/04/14 00:34:41;;;;;;;19.17;10.05;;;;;;;-144.47;100.00;61586.06;6181195;23;20443;-78
2022/04/14 00:37:11;;;;;;;13.80;9.88;;;;;;;-144.47;100.00;61586.06;6180536;23;20016;-79
2022/04/14 00:39:40;;;;;;;13.38;10.00;;;;;;;-144.47;100.00;61586.06;6154294;23;20415;-79
2022/04/14 00:42:14;;;;;;;15.45;9.52;;;;;;;-144.47;100.00;61586.06;6181260;23;20020;-79
2022/04/14 00:44:39;;;;;;;18.13;11.23;;;;;;;-144.47;100.00;61586.06;6181334;23;20379;-77
2022/04/14 00:47:06;;;;;;;12.73;10.43;;;;;;;-144.47;100.00;61586.06;6129820;23;20005;-76
2022/04/14 00:49:33;;;;;;;17.08;11.43;;;;;;;-144.47;100.00;61586.06;6131474;23;20465;-77
2022/04/14 00:52:03;;;;;;;16.10;11.18;;;;;;;-144.47;100.00;61586.06;6183164;23;20009;-77
2022/04/14 00:54:30;;;;;;;18.88;11.55;;;;;;;-144.47;100.00;61586.06;6157060;23;20017;-77
2022/04/14 00:56:58;;;;;;;21.08;13.48;;;;;;;-144.47;100.00;61586.06;6183458;23;20001;-80
2022/04/14 00:59:24;;;;;;;18.88;11.88;;;;;;;-144.47;100.00;61586.06;6179047;23;20397;-77
2022/04/14 01:01:50;;;;;;;22.33;12.43;;;;;;;-144.47;100.00;61586.06;6202392;23;19997;-80
2022/04/14 01:04:16;;;;;;;14.18;11.55;;;;;;;-144.47;100.00;61586.06;6177901;23;20113;-78
2022/04/14 01:06:43;;;;;;;20.23;11.27;;;;;;;-144.47;100.00;61586.06;6184275;23;20013;-80
2022/04/14 01:09:16;;;;;;;15.48;10.27;;;;;;;-144.47;100.00;61586.06;6182613;23;20092;-78
2022/04/14 01:11:51;;;;;;;17.25;10.63;;;;;;;-144.47;100.00;61586.06;6182740;23;20020;-78
2022/04/14 01:14:24;;;;;;;16.35;10.38;;;;;;;-144.47;100.00;61586.06;6156227;23;20075;-79
2022/04/14 01:16:49;;;;;;;18.75;10.52;;;;;;;-144.47;100.00;61586.06;6182649;23;20024;-78
2022/04/14 01:19:15;;;;;;;16.05;10.73;;;;;;;-144.47;100.00;61586.06;6181432;23;20021;-78
2022/04/14 01:21:56;;;;;;;22.52;12.05;;;;;;;-144.47;100.00;61586.06;6156476;23;20016;-78
2022/04/14 01:24:22;;;;;;;16.45;10.45;;;;;;;-144.47;100.00;61586.06;6156732;23;20016;-78
2022/04/14 01:26:47;;;;;;;16.65;10.80;;;;;;;-144.47;100.00;61586.06;6183153;23;20005;-77
2022/04/14 01:29:24;;;;;;;18.15;10.95;;;;;;;-144.47;100.00;61586.06;6182031;23;20013;-78
2022/04/14 01:31:50;;;;;;;15.77;10.43;;;;;;;-144.47;100.00;61586.06;6185856;23;20430;-78
2022/04/14 01:34:16;;;;;;;16.25;10.60;;;;;;;-144.47;100.00;61586.06;6181980;23;20013;-78
2022/04/14 01:36:42;;;;;;;17.65;10.70;;;;;;;-144.47;100.00;61586.06;6182904;23;20051;-78
2022/04/14 01:39:10;;;;;;;18.25;10.88;;;;;;;-144.47;100.00;61586.06;6181948;23;20351;-78
2022/04/14 01:41:38;;;;;;;19.05;9.80;;;;;;;-144.47;100.00;61586.06;6182462;23;20016;-78
2022/04/14 01:49:00;;;;;;;13.30;9.68;;;;;;;-144.47;100.00;61586.06;6182224;23;20019;-78
2022/04/14 01:55:28;;;;;;;16.95;10.45;;;;;;;-144.47;100.00;61586.06;6182107;23;20114;-77
2022/04/14 01:57:53;;;;;;;15.18;10.32;;;;;;;-144.47;100.00;61586.06;6155973;23;20040;-77
2022/04/14 02:00:20;;;;;;;13.82;10.32;;;;;;;-144.47;100.00;61586.06;6181891;23;20020;-77
2022/04/14 02:02:45;;;;;;;14.88;10.25;;;;;;;-144.47;100.00;61586.06;6156052;23;20080;-77
2022/04/14 02:05:11;;;;;;;16.50;10.93;;;;;;;-144.47;100.00;61586.06;6182116;23;20119;-77
2022/04/14 02:07:36;;;;;;;16.02;11.38;;;;;;;-144.47;100.00;61586.06;6182433;23;20017;-78
2022/04/14 02:10:03;;;;;;;16.25;11.45;;;;;;;-144.47;100.00;61586.06;6180245;23;20020;-78
2022/04/14 02:12:29;;;;;;;17.20;11.63;;;;;;;-144.47;100.00;61586.06;6182580;23;20021;-77
2022/04/14 02:14:54;;;;;;;20.58;11.80;;;;;;;-144.47;100.00;61586.06;6182356;23;20013;-79
2022/04/14 02:17:20;;;;;;;17.95;11.38;;;;;;;-144.47;100.00;61586.06;6155356;23;20486;-78
2022/04/14 02:19:47;;;;;;;20.75;12.55;;;;;;;-144.47;100.00;61586.06;6131471;23;20083;-77
2022/04/14 02:22:12;;;;;;;15.05;10.98;;;;;;;-144.47;100.00;61586.06;6155692;23;20488;-78
2022/04/14 02:24:38;;;;;;;15.70;10.88;;;;;;;-144.47;100.00;61586.06;6183603;23;20004;-77
2022/04/14 02:27:04;;;;;;;16.65;11.25;;;;;;;-144.47;100.00;61586.06;6156342;23;20087;-77
2022/04/14 02:29:29;;;;;;;18.15;11.75;;;;;;;-144.47;100.00;61586.06;6186515;23;20072;-79
2022/04/14 02:31:57;;;;;;;16.92;11.25;;;;;;;-144.47;100.00;61586.06;6192081;23;20040;-78
2022/04/14 02:34:26;;;;;;;15.90;10.68;;;;;;;-144.47;100.00;61586.06;6133658;23;20017;-79
2022/04/14 02:36:53;;;;;;;17.17;10.88;;;;;;;-144.47;100.00;61586.06;6182634;23;20427;-78
2022/04/14 02:39:18;;;;;;;21.08;12.32;;;;;;;-144.47;100.00;61586.06;6181719;23;20043;-77
2022/04/14 02:41:45;;;;;;;19.75;10.57;;;;;;;-144.47;100.00;61586.06;6156024;23;20012;-77
2022/04/14 02:44:11;;;;;;;15.30;10.90;;;;;;;-144.47;100.00;61586.06;6181814;23;20385;-78
2022/04/14 02:46:36;;;;;;;15.85;10.65;;;;;;;-144.47;100.00;61586.06;6155826;23;20013;-79
2022/04/14 02:49:02;;;;;;;12.35;9.90;;;;;;;-144.47;100.00;61586.06;6181488;23;20049;-77
2022/04/14 02:51:27;;;;;;;18.48;10.63;;;;;;;-144.47;100.00;61586.06;6181976;23;20099;-77
2022/04/14 02:53:53;;;;;;;20.05;11.15;;;;;;;-144.47;100.00;61586.06;6181395;23;20075;-79
2022/04/14 02:56:18;;;;;;;18.45;10.93;;;;;;;-144.47;100.00;61586.06;6181624;23;20017;-78
2022/04/14 02:58:44;;;;;;;18.90;10.77;;;;;;;-144.47;100.00;61586.06;6182087;23;20045;-76
2022/04/14 03:01:09;;;;;;;18.80;10.98;;;;;;;-144.47;100.00;61586.06;6181755;23;20020;-77
2022/04/14 03:03:34;;;;;;;17.50;11.35;;;;;;;-144.47;100.00;61586.06;6180187;23;20067;-77
2022/04/14 03:06:00;;;;;;;16.83;10.93;;;;;;;-144.47;100.00;61586.06;6181789;23;20005;-77
2022/04/14 03:08:25;;;;;;;15.52;10.98;;;;;;;-144.47;100.00;61586.06;6181885;23;20411;-78
2022/04/14 03:10:53;;;;;;;17.15;10.52;;;;;;;-144.47;100.00;61586.06;6181725;23;20318;-78
2022/04/14 03:13:20;;;;;;;22.25;11.48;;;;;;;-144.47;100.00;61586.06;6181416;23;20024;-78
2022/04/14 03:15:48;;;;;;;15.90;10.30;;;;;;;-144.47;100.00;61586.06;6180297;23;20017;-78
2022/04/14 03:18:14;;;;;;;14.30;10.07;;;;;;;-144.47;100.00;61586.06;6181432;23;20498;-78
2022/04/14 03:20:40;;;;;;;13.88;10.98;;;;;;;-144.47;100.00;61586.06;6131040;23;20040;-77
2022/04/14 03:23:07;;;;;;;19.83;10.95;;;;;;;-144.47;100.00;61586.06;6181225;23;20063;-79
2022/04/14 03:25:32;;;;;;;15.65;10.60;;;;;;;-144.47;100.00;61586.06;6181476;23;20009;-79
2022/04/14 03:27:58;;;;;;;15.98;11.07;;;;;;;-144.47;100.00;61586.06;6155168;23;20013;-78
2022/04/14 03:30:23;;;;;;;17.80;11.05;;;;;;;-144.47;100.00;61586.06;6154844;23;20027;-77
2022/04/14 03:32:49;;;;;;;16.08;10.20;;;;;;;-144.47;100.00;61586.06;6181729;23;20415;-77
2022/04/14 03:35:16;;;;;;;16.15;10.75;;;;;;;-144.47;100.00;61586.06;6181132;23;20087;-75
2022/04/14 03:37:42;;;;;;;17.20;11.32;;;;;;;-144.47;100.00;61586.06;6181366;23;20015;-78
2022/04/14 03:40:08;;;;;;;17.85;10.73;;;;;;;-144.47;100.00;61586.06;6180819;23;20383;-76
2022/04/14 03:54:09;;;;;;;14.32;11.30;;;;;;;-144.47;100.00;61586.06;5976178;23;20450;-77
2022/04/14 03:56:36;;;;;;;22.98;11.63;;;;;;;-144.47;100.00;61586.06;5976703;24;20021;-77
2022/04/14 03:59:01;;;;;;;16.92;11.85;;;;;;;-144.47;100.00;61586.06;5976311;23;20529;-78
2022/04/14 04:01:27;;;;;;;17.48;11.75;;;;;;;-144.47;100.00;61586.06;5976910;24;20008;-77
2022/04/14 04:03:52;;;;;;;21.25;11.60;;;;;;;-144.47;100.00;61586.06;5977204;24;20103;-78
2022/04/14 04:06:18;;;;;;;14.52;10.90;;;;;;;-144.47;100.00;61586.06;5976425;24;20024;-78
2022/04/14 04:08:45;;;;;;;16.23;10.52;;;;;;;-144.47;100.00;61586.06;5976861;24;20024;-77
2022/04/14 04:11:11;;;;;;;17.60;11.70;;;;;;;-144.47;100.00;61586.06;5976128;24;20027;-78
2022/04/14 04:13:37;;;;;;;19.35;11.00;;;;;;;-144.47;100.00;61586.06;5976792;24;20020;-78
2022/04/14 04:16:02;;;;;;;20.95;11.23;;;;;;;-144.47;100.00;61586.06;5952940;24;20027;-77
2022/04/14 04:18:30;;;;;;;18.45;11.07;;;;;;;-144.47;100.00;61586.06;5977042;23;20102;-77
2022/04/14 04:20:56;;;;;;;15.57;11.32;;;;;;;-144.47;100.00;61586.06;6000321;23;20047;-77
2022/04/14 04:23:23;;;;;;;15.95;11.13;;;;;;;-144.47;100.00;61586.06;6033505;23;20445;-78
2022/04/14 04:25:49;;;;;;;18.65;12.35;;;;;;;-144.47;100.00;61586.06;6073172;23;20014;-78
2022/04/14 04:28:15;;;;;;;13.90;10.27;;;;;;;-144.47;100.00;61586.06;6122179;23;20395;-77
2022/04/14 04:30:42;;;;;;;15.52;10.68;;;;;;;-144.47;100.00;61586.06;6126939;23;20074;-77
2022/04/14 04:33:07;;;;;;;13.95;10.30;;;;;;;-144.47;100.00;61586.06;6130359;23;20018;-76
2022/04/14 04:35:33;;;;;;;17.90;10.77;;;;;;;-144.47;100.00;61586.06;6130633;23;20010;-77
2022/04/14 04:37:58;;;;;;;13.80;10.07;;;;;;;-144.47;100.00;61586.06;6128935;23;20017;-78
2022/04/14 04:40:23;;;;;;;14.90;11.45;;;;;;;-144.47;100.00;61586.06;6126290;23;20006;-78
2022/04/14 04:42:49;;;;;;;17.13;10.82;;;;;;;-144.47;100.00;61586.06;6123651;23;20709;-78
2022/04/14 04:45:14;;;;;;;17.90;10.48;;;;;;;-144.47;100.00;61586.06;6123175;23;20188;-78
2022/04/14 04:47:40;;;;;;;16.02;10.32;;;;;;;-144.47;100.00;61586.06;6123706;23;20371;-76
2022/04/14 04:50:07;;;;;;;20.27;10.93;;;;;;;-144.47;100.00;61586.06;6123418;23;20033;-77
2022/04/14 04:52:35;;;;;;;19.13;10.35;;;;;;;-144.47;100.00;61586.06;6124184;23;20033;-77
2022/04/14 04:55:02;;;;;;;18.42;10.35;;;;;;;-144.47;100.00;61586.06;6123615;23;20072;-78
2022/04/14 04:57:27;;;;;;;19.77;11.27;;;;;;;-144.47;100.00;61586.06;6124650;23;20010;-77
2022/04/14 04:59:52;;;;;;;36.80;12.80;;;;;;;-144.47;100.00;61586.06;6098576;23;20089;-77
2022/04/14 05:02:18;;;;;;;19.67;11.18;;;;;;;-144.47;100.00;61586.06;6123274;23;20014;-78
2022/04/14 05:04:43;;;;;;;16.73;12.05;;;;;;;-144.47;100.00;61586.06;6097764;23;20056;-78
2022/04/14 05:07:09;;;;;;;19.25;11.68;;;;;;;-144.47;100.00;61586.06;6123204;23;20124;-78
2022/04/14 05:09:35;;;;;;;16.85;11.57;;;;;;;-144.47;100.00;61586.06;6123803;23;20312;-77
2022/04/14 05:12:00;;;;;;;24.10;11.93;;;;;;;-144.47;100.00;61586.06;6097584;23;20419;-78
2022/04/14 05:14:25;;;;;;;17.98;11.63;;;;;;;-144.47;100.00;61586.06;6123477;23;20089;-81
2022/04/14 05:16:51;;;;;;;21.23;12.48;;;;;;;-144.47;100.00;61586.06;6074747;23;20085;-78
2022/04/14 05:19:16;;;;;;;17.42;11.40;;;;;;;-144.47;100.00;61586.06;6097383;23;20339;-79
2022/04/14 05:21:42;;;;;;;21.50;12.15;;;;;;;-144.47;100.00;61586.06;6124224;23;20331;-79
2022/04/14 05:24:07;;;;;;;18.90;11.30;;;;;;;-144.47;100.00;61586.06;6097419;23;20014;-77
2022/04/14 05:26:33;;;;;;;18.92;10.65;;;;;;;-144.47;100.00;61586.06;6124092;23;20002;-77
2022/04/14 05:28:58;;;;;;;18.48;11.43;;;;;;;-144.47;100.00;61586.06;6123550;23;20010;-77
2022/04/14 05:31:24;;;;;;;15.90;10.40;;;;;;;-144.47;100.00;61586.06;6123507;23;20010;-76
2022/04/14 05:33:49;;;;;;;17.05;11.65;;;;;;;-144.47;100.00;61586.06;6123400;23;20401;-76
2022/04/14 05:36:15;;;;;;;16.63;11.43;;;;;;;-144.47;100.00;61586.06;6122956;23;20341;-78
2022/04/14 05:38:40;;;;;;;16.65;12.05;;;;;;;-144.47;100.00;61586.06;6124101;23;20092;-76
2022/04/14 05:41:08;;;;;;;18.45;11.35;;;;;;;-144.47;100.00;61586.06;6124315;23;20001;-77
2022/04/14 05:43:33;;;;;;;17.67;11.38;;;;;;;-144.47;100.00;61586.06;6112121;23;20529;-76
2022/04/14 05:45:59;;;;;;;20.98;13.27;;;;;;;-144.47;100.00;61586.06;6120914;23;20018;-78
2022/04/14 05:48:28;;;;;;;20.40;13.07;;;;;;;-144.47;100.00;61586.06;6121306;23;20017;-77
2022/04/14 05:50:54;;;;;;;22.27;11.50;;;;;;;-144.47;100.00;61586.06;6124394;23;20073;-77
2022/04/14 05:53:25;;;;;;;20.33;12.25;;;;;;;-144.47;100.00;61586.06;6123195;23;20415;-76
2022/04/14 05:55:52;;;;;;;20.85;12.40;;;;;;;-144.47;100.00;61586.06;6124943;23;20016;-78
2022/04/14 05:58:18;;;;;;;17.10;11.55;;;;;;;-144.47;100.00;61586.06;6122485;23;20014;-76
2022/04/14 06:00:44;;;;;;;22.08;12.77;;;;;;;-144.47;100.00;61586.06;6124128;23;20010;-78
2022/04/14 06:03:13;;;;;;;21.02;13.25;;;;;;;-144.47;100.00;61586.06;6123697;23;20009;-78
2022/04/14 06:05:39;;;;;;;19.27;13.43;;;;;;;-144.47;100.00;61586.06;6123028;23;20014;-80
2022/04/14 06:08:05;;;;;;;23.98;14.35;;;;;;;-144.47;100.00;61586.06;6124257;23;20014;-77
2022/04/14 06:10:31;;;;;;;21.58;14.00;;;;;;;-144.47;100.00;61586.06;6123749;23;20146;-80
2022/04/14 06:12:57;;;;;;;25.50;13.70;;;;;;;-144.47;100.00;61586.06;6122814;23;20061;-80
2022/04/14 06:15:23;;;;;;;20.17;13.93;;;;;;;-144.47;100.00;61586.06;6121292;23;20021;-78
2022/04/14 06:17:50;;;;;;;24.00;14.45;;;;;;;-144.47;100.00;61586.06;6120441;23;20041;-82
2022/04/14 06:20:15;;;;;;;23.70;14.35;;;;;;;-144.47;100.00;61586.06;6095506;23;20093;-81
2022/04/14 06:22:42;;;;;;;26.00;14.73;;;;;;;-144.47;100.00;61586.06;6119810;23;20030;-78
2022/04/14 06:25:13;;;;;;;24.23;14.68;;;;;;;-144.47;100.00;61586.06;6122442;23;20340;-79
2022/04/14 06:27:43;;;;;;;30.23;15.75;;;;;;;-144.47;100.00;61586.06;6121269;23;20037;-82
2022/04/14 06:30:10;;;;;;;28.23;16.23;;;;;;;-144.47;100.00;61586.06;6122763;23;20021;-78
2022/04/14 06:32:36;;;;;;;27.83;16.92;;;;;;;-144.47;100.00;61586.06;6121187;23;20062;-78
2022/04/14 06:35:04;;;;;;;28.63;16.42;;;;;;;-144.47;100.00;61586.06;6121605;23;20012;-80
2022/04/14 06:37:29;;;;;;;26.80;17.52;;;;;;;-144.47;100.00;61586.06;6122413;23;20041;-80
2022/04/14 06:39:55;;;;;;;29.38;17.48;;;;;;;-144.47;100.00;61586.06;6097179;23;20042;-79
2022/04/14 06:42:23;;;;;;;27.25;17.35;;;;;;;-144.47;100.00;61586.06;6122954;23;20340;-76
2022/04/14 06:44:49;;;;;;;33.00;18.23;;;;;;;-144.47;100.00;61586.06;6123047;23;20017;-78
2022/04/14 06:47:14;;;;;;;31.48;18.38;;;;;;;-144.47;100.00;61586.06;6122312;23;20010;-78
2022/04/14 06:49:40;;;;;;;36.83;20.02;;;;;;;-144.47;100.00;61586.06;6121967;23;20049;-76
2022/04/14 06:52:05;;;;;;;35.35;21.08;;;;;;;-144.47;100.00;61586.06;6122105;23;20041;-82
2022/04/14 06:54:31;;;;;;;31.80;20.48;;;;;;;-144.47;100.00;61586.06;6097236;23;20061;-79
2022/04/14 06:56:56;;;;;;;37.00;20.15;;;;;;;-144.47;100.00;61586.06;6122503;23;20064;-79
2022/04/14 06:59:23;;;;;;;35.35;20.75;;;;;;;-144.47;100.00;61586.06;6122478;23;20017;-80
2022/04/14 07:01:48;;;;;;;30.10;19.40;;;;;;;-144.47;100.00;61586.06;6122403;23;20511;-80
2022/04/14 07:04:13;;;;;;;36.22;18.88;;;;;;;-144.47;100.00;61586.06;6122291;23;20077;-82
2022/04/14 07:06:39;;;;;;;33.80;19.33;;;;;;;-144.47;100.00;61586.06;6124798;23;20006;-82
2022/04/14 07:09:04;;;;;;;27.60;17.50;;;;;;;-144.47;100.00;61586.06;6122110;23;20013;-84
2022/04/14 07:11:30;;;;;;;32.92;19.60;;;;;;;-144.47;100.00;61586.06;6123397;23;20017;-80
2022/04/14 07:13:55;;;;;;;29.15;19.05;;;;;;;-144.47;100.00;61586.06;6122479;23;20044;-83
2022/04/14 07:16:21;;;;;;;31.20;19.08;;;;;;;-144.47;100.00;61586.06;6122295;23;20096;-82
2022/04/14 07:18:46;;;;;;;32.17;18.80;;;;;;;-144.47;100.00;61586.06;6123086;23;20018;-81
2022/04/14 07:21:12;;;;;;;27.75;18.27;;;;;;;-144.47;100.00;61586.06;6122150;23;20010;-80
2022/04/14 07:23:38;;;;;;;31.20;19.20;;;;;;;-144.47;100.00;61586.06;6097403;23;20021;-82
2022/04/14 07:26:04;;;;;;;31.63;18.98;;;;;;;-144.47;100.00;61586.06;6124784;23;20018;-81
2022/04/14 07:28:29;;;;;;;30.85;18.23;;;;;;;-144.47;100.00;61586.06;6122976;23;20038;-80
2022/04/14 07:30:55;;;;;;;28.77;18.67;;;;;;;-144.47;100.00;61586.06;6097706;23;20040;-83
2022/04/14 07:33:21;;;;;;;30.92;18.65;;;;;;;-144.47;100.00;61586.06;6130918;23;20042;-83
2022/04/14 07:35:48;;;;;;;32.10;18.88;;;;;;;-144.47;100.00;61586.06;6110785;23;20040;-82
2022/04/14 07:38:15;;;;;;;29.33;17.58;;;;;;;-144.47;100.00;61586.06;6105115;23;20347;-80
2022/04/14 07:40:40;;;;;;;28.25;18.83;;;;;;;-144.47;100.00;61586.06;6130178;23;20008;-81
2022/04/14 07:43:06;;;;;;;28.50;18.35;;;;;;;-144.47;100.00;61586.06;6131153;23;20014;-81
2022/04/14 07:45:31;;;;;;;32.85;18.13;;;;;;;-144.47;100.00;61586.06;6132889;23;20034;-80
2022/04/14 07:47:57;;;;;;;27.50;17.60;;;;;;;-144.47;100.00;61586.06;6111150;23;20018;-82
2022/04/14 07:50:24;;;;;;;29.15;18.42;;;;;;;-144.47;100.00;61586.06;6134147;23;20037;-80
2022/04/14 07:52:56;;;;;;;38.10;19.92;;;;;;;-144.47;100.00;61586.06;6128692;23;20065;-81
2022/04/14 07:55:27;;;;;;;26.33;17.73;;;;;;;-144.47;100.00;61586.06;6124392;23;20010;-83
2022/04/14 07:57:55;;;;;;;29.13;18.63;;;;;;;-144.47;100.00;61586.06;6098352;23;20085;-81
2022/04/14 08:00:23;;;;;;;29.20;18.13;;;;;;;-144.47;100.00;61586.06;6126690;23;20073;-84
2022/04/14 08:05:34;;;;;;;32.45;19.60;;;;;;;-144.47;100.00;61586.06;6192747;23;20040;-82
2022/04/14 08:08:02;;;;;;;35.47;19.67;;;;;;;-144.47;100.00;61586.06;6202768;23;20013;-81
2022/04/14 08:10:27;;;;;;;31.90;18.58;;;;;;;-144.47;100.00;61586.06;6169565;23;20028;-81
2022/04/14 08:12:53;;;;;;;34.65;18.73;;;;;;;-144.47;100.00;61586.06;6197196;23;20013;-81
2022/04/14 08:15:18;;;;;;;35.35;20.10;;;;;;;-144.47;100.00;61586.06;6140653;23;20087;-78
2022/04/14 08:17:46;;;;;;;31.30;19.38;;;;;;;-144.47;100.00;61586.06;6183441;23;20009;-75
2022/04/14 08:20:13;;;;;;;34.13;20.77;;;;;;;-144.47;100.00;61586.06;6182835;23;20469;-76
2022/04/14 08:22:49;;;;;;;34.78;19.40;;;;;;;-144.47;100.00;61586.06;6155748;23;20016;-76
2022/04/14 08:25:18;;;;;;;31.52;19.00;;;;;;;-144.47;100.00;61586.06;6182413;23;20013;-74
2022/04/14 08:27:43;;;;;;;33.20;19.85;;;;;;;-144.47;100.00;61586.06;6182706;23;20031;-78
2022/04/14 08:30:10;;;;;;;36.88;21.02;;;;;;;-144.47;100.00;61586.06;6182427;23;20406;-80
2022/04/14 08:32:37;;;;;;;32.03;18.42;;;;;;;-144.47;100.00;61586.06;6157101;23;20053;-79
2022/04/14 08:35:03;;;;;;;37.08;19.13;;;;;;;-144.47;100.00;61586.06;6156766;23;20009;-80
2022/04/14 08:37:29;;;;;;;32.60;18.83;;;;;;;-144.47;100.00;61586.06;6182956;23;20067;-80
2022/04/14 08:39:54;;;;;;;35.40;18.95;;;;;;;-144.47;100.00;61586.06;6183043;23;20370;-79
2022/04/14 08:42:26;;;;;;;29.27;19.30;;;;;;;-144.47;100.00;61586.06;6183215;23;20016;-82
2022/04/14 08:45:01;;;;;;;34.22;19.63;;;;;;;-144.47;100.00;61586.06;6183912;23;20017;-82
2022/04/14 08:47:31;;;;;;;32.45;19.83;;;;;;;-144.47;100.00;61586.06;6185652;23;20009;-81
2022/04/14 08:49:58;;;;;;;35.92;19.92;;;;;;;-144.47;100.00;61586.06;6185181;23;20028;-80
2022/04/14 08:52:26;;;;;;;32.95;19.05;;;;;;;-144.47;100.00;61586.06;6191295;23;20017;-80
2022/04/14 08:54:54;;;;;;;32.38;17.88;;;;;;;-144.47;100.00;61586.06;6186769;23;20005;-78
2022/04/14 08:57:23;;;;;;;34.95;17.85;;;;;;;-144.47;100.00;61586.06;6182288;23;20008;-78
2022/04/14 08:59:50;;;;;;;32.22;17.92;;;;;;;-144.47;100.00;61586.06;6183082;23;20040;-78
2022/04/14 09:02:23;;;;;;;32.45;18.65;;;;;;;-144.47;100.00;61586.06;6183034;23;20343;-78
2022/04/14 09:04:49;;;;;;;34.95;17.95;;;;;;;-144.47;100.00;61586.06;6183205;23;20545;-78
2022/04/14 09:07:15;;;;;;;31.45;17.00;;;;;;;-144.47;100.00;61586.06;6156059;23;20378;-78
2022/04/14 09:09:41;;;;;;;32.40;15.75;;;;;;;-144.47;100.00;61586.06;6155926;23;20465;-78
2022/04/14 09:12:07;;;;;;;30.83;15.55;;;;;;;-144.47;100.00;61586.06;6182619;23;20009;-77
2022/04/14 09:14:34;;;;;;;30.25;15.65;;;;;;;-144.47;100.00;61586.06;6183307;23;20013;-83
2022/04/14 09:17:07;;;;;;;27.48;15.63;;;;;;;-144.47;100.00;61586.06;6133401;23;20092;-83
2022/04/14 09:19:37;;;;;;;25.02;15.55;;;;;;;-144.47;100.00;61586.06;6183427;23;20481;-82
2022/04/14 09:22:02;;;;;;;27.15;14.73;;;;;;;-144.47;100.00;61586.06;6138402;23;20028;-85
2022/04/14 09:24:55;;;;;;;32.17;15.43;;;;;;;-144.47;100.00;61586.06;6136960;23;20009;-81
2022/04/14 09:27:27;;;;;;;31.00;15.13;;;;;;;-144.47;100.00;61586.06;6182284;23;20009;-81
2022/04/14 09:29:55;;;;;;;30.35;16.15;;;;;;;-144.47;100.00;61586.06;6156989;23;20024;-82
2022/04/14 09:32:37;;;;;;;29.42;15.05;;;;;;;-144.47;100.00;61586.06;6181719;23;20037;-81
2022/04/14 09:35:31;;;;;;;26.58;14.07;;;;;;;-144.47;100.00;61586.06;6182101;23;20041;-82
2022/04/14 09:38:06;;;;;;;25.55;13.52;;;;;;;-144.47;100.00;61586.06;6180340;23;20353;-80
2022/04/14 09:40:37;;;;;;;25.60;13.57;;;;;;;-144.47;100.00;61586.06;6183285;23;20040;-81
2022/04/14 09:43:04;;;;;;;22.52;13.23;;;;;;;-144.47;100.00;61586.06;6182911;23;20075;-82
2022/04/14 09:45:30;;;;;;;26.80;13.20;;;;;;;-144.47;100.00;61586.06;6182985;23;20009;-81
2022/04/14 09:48:07;;;;;;;23.17;13.00;;;;;;;-144.47;100.00;61586.06;6182629;23;20029;-80
2022/04/14 09:50:47;;;;;;;23.45;11.68;;;;;;;-144.47;100.00;61586.06;6182627;23;20330;-81
2022/04/14 09:53:15;;;;;;;20.10;12.57;;;;;;;-144.47;100.00;61586.06;6182629;23;20013;-80
2022/04/14 09:55:56;;;;;;;26.50;12.90;;;;;;;-144.47;100.00;61586.06;6182833;23;20306;-83
2022/04/14 09:58:23;;;;;;;25.42;13.20;;;;;;;-144.47;100.00;61586.06;6155209;23;20347;-84
2022/04/14 10:00:54;;;;;;;23.45;13.07;;;;;;;-144.47;100.00;61586.06;6156418;23;20013;-78
2022/04/14 10:03:25;;;;;;;26.88;13.27;;;;;;;-144.47;100.00;61586.06;6182156;23;20083;-78
2022/04/14 10:06:05;;;;;;;28.42;14.15;;;;;;;-144.47;100.00;61586.06;6182712;23;20315;-78
2022/04/14 10:08:47;;;;;;;24.25;13.82;;;;;;;-144.47;100.00;61586.06;6182624;23;20020;-77
2022/04/14 10:11:12;;;;;;;24.50;13.70;;;;;;;-144.47;100.00;61586.06;6181372;23;20013;-77
2022/04/14 10:13:39;;;;;;;23.48;12.68;;;;;;;-144.47;100.00;61586.06;6155198;23;20307;-80
2022/04/14 10:16:07;;;;;;;26.13;14.30;;;;;;;-144.47;100.00;61586.06;6184117;23;20013;-81
2022/04/14 10:18:33;;;;;;;23.90;13.98;;;;;;;-144.47;100.00;61586.06;6183394;23;20373;-81
2022/04/14 10:21:01;;;;;;;28.40;15.23;;;;;;;-144.47;100.00;61586.06;6185122;23;20028;-81
2022/04/14 10:23:27;;;;;;;29.45;15.15;;;;;;;-144.47;100.00;61586.06;6133364;23;20016;-80
2022/04/14 10:25:53;;;;;;;29.40;15.63;;;;;;;-144.47;100.00;61586.06;6157017;23;20076;-80
2022/04/14 10:28:20;;;;;;;29.67;15.20;;;;;;;-144.47;100.00;61586.06;6181816;23;20032;-80
2022/04/14 10:30:57;;;;;;;27.08;15.05;;;;;;;-144.47;100.00;61586.06;6156060;23;20012;-81
2022/04/14 10:33:24;;;;;;;26.13;14.20;;;;;;;-144.47;100.00;61586.06;6183011;23;20009;-80
2022/04/14 10:35:51;;;;;;;28.15;14.65;;;;;;;-144.47;100.00;61586.06;6183039;23;20016;-79
2022/04/14 10:38:37;;;;;;;28.70;15.50;;;;;;;-144.47;100.00;61586.06;6181917;23;20164;-82
2022/04/14 10:41:14;;;;;;;26.02;13.68;;;;;;;-144.47;100.00;61586.06;6182333;23;20013;-83
2022/04/14 10:43:42;;;;;;;28.02;14.65;;;;;;;-144.47;100.00;61586.06;6183723;23;20315;-82
2022/04/14 10:46:08;;;;;;;28.25;14.13;;;;;;;-144.47;100.00;61586.06;6182544;23;20492;-81
2022/04/14 10:48:40;;;;;;;27.77;14.25;;;;;;;-144.47;100.00;61586.06;6182660;23;20009;-86
2022/04/14 10:51:30;;;;;;;30.90;14.65;;;;;;;-144.47;100.00;61586.06;6183224;23;20435;-85
2022/04/14 10:54:10;;;;;;;30.90;14.73;;;;;;;-144.47;100.00;61586.06;6183844;23;20009;-80
2022/04/14 10:56:40;;;;;;;28.00;14.63;;;;;;;-144.47;100.00;61586.06;6131669;23;20017;-80
2022/04/14 10:59:18;;;;;;;25.83;13.77;;;;;;;-144.47;100.00;61586.06;6182877;23;20388;-80
2022/04/14 11:01:52;;;;;;;28.65;14.52;;;;;;;-144.47;100.00;61586.06;6182323;23;20483;-79
2022/04/14 11:04:43;;;;;;;27.15;14.35;;;;;;;-144.47;100.00;61586.06;6180217;23;20116;-82
2022/04/14 11:07:14;;;;;;;28.30;14.25;;;;;;;-144.47;100.00;61586.06;6179637;23;20025;-81
2022/04/14 11:09:42;;;;;;;33.25;15.15;;;;;;;-144.47;100.00;61586.06;6178435;23;20069;-80
2022/04/14 11:12:09;;;;;;;29.65;14.35;;;;;;;-144.47;100.00;61586.06;6179534;23;20787;-82
2022/04/14 11:14:36;;;;;;;28.90;15.40;;;;;;;-144.47;100.00;61586.06;6179332;23;20020;-81
2022/04/14 11:17:03;;;;;;;25.50;13.55;;;;;;;-144.47;100.00;61586.06;6179100;23;20013;-80
2022/04/14 11:19:29;;;;;;;27.27;13.40;;;;;;;-144.47;100.00;61586.06;6178194;23;20012;-80